createdAt,value
2022-11-03T00:00:43.574Z,26.4
2022-11-03T00:01:46.137Z,26.4
2022-11-03T00:02:49.773Z,26.4
2022-11-03T00:03:52.323Z,26.4
2022-11-03T00:04:54.227Z,26.4
2022-11-03T00:05:56.145Z,26.3
2022-11-03T00:06:58.496Z,26.5
2022-11-03T00:08:00.981Z,26.6
2022-11-03T00:09:03.545Z,26.6
2022-11-03T00:10:05.765Z,26.6
2022-11-03T00:11:07.963Z,26.8
2022-11-03T00:12:10.438Z,26.6
2022-11-03T00:13:12.343Z,26.6
2022-11-03T00:14:14.808Z,26.7
2022-11-03T00:15:17.374Z,26.8
2022-11-03T00:16:19.558Z,26.5
2022-11-03T00:17:20.963Z,26.7
2022-11-03T00:18:23.452Z,26.9
2022-11-03T00:19:25.371Z,26.8
2022-11-03T00:20:27.560Z,26.7
2022-11-03T00:21:29.761Z,26.8
2022-11-03T00:22:31.682Z,26.8
2022-11-03T00:23:33.892Z,26.8
2022-11-03T00:24:36.376Z,26.4
2022-11-03T00:25:38.572Z,26.8
2022-11-03T00:26:40.508Z,26.7
2022-11-03T00:27:42.707Z,26.6
2022-11-03T00:28:45.174Z,26.5
2022-11-03T00:29:47.384Z,26.6
2022-11-03T00:30:49.738Z,26.5
2022-11-03T00:31:52.211Z,26.7
2022-11-03T00:32:53.847Z,26.6
2022-11-03T00:33:56.314Z,26.8
2022-11-03T00:34:58.514Z,26.6
2022-11-03T00:36:00.989Z,26.8
2022-11-03T00:37:03.457Z,26.6
2022-11-03T00:38:05.658Z,27
2022-11-03T00:39:07.581Z,26.8
2022-11-03T00:40:09.807Z,26.8
2022-11-03T00:41:12.271Z,26.9
2022-11-03T00:42:14.470Z,27.5
2022-11-03T00:43:16.667Z,26.6
2022-11-03T00:44:19.140Z,27.4
2022-11-03T00:45:21.607Z,26.6
2022-11-03T00:46:24.165Z,27
2022-11-03T00:47:26.630Z,27.4
2022-11-03T00:48:28.537Z,26.8
2022-11-03T00:49:31.033Z,26.8
2022-11-03T00:50:33.236Z,27.1
2022-11-03T00:51:35.169Z,27
2022-11-03T00:52:37.761Z,27.2
2022-11-03T00:53:40.236Z,27.1
2022-11-03T00:54:45.311Z,27
2022-11-03T00:55:47.173Z,27.5
2022-11-03T00:56:49.069Z,27.1
2022-11-03T00:57:51.270Z,27.1
2022-11-03T00:58:52.908Z,27
2022-11-03T00:59:55.106Z,27
2022-11-03T01:00:57.356Z,27.1
2022-11-03T01:02:00.387Z,27.4
2022-11-03T01:03:03.607Z,27.1
2022-11-03T01:04:07.727Z,27.2
2022-11-03T01:05:10.193Z,27
2022-11-03T01:06:12.669Z,27.3
2022-11-03T01:07:14.868Z,27.2
2022-11-03T01:08:17.340Z,27
2022-11-03T01:09:25.149Z,27
2022-11-03T01:10:27.630Z,27.3
2022-11-03T01:11:29.863Z,27.1
2022-11-03T01:12:32.056Z,26.9
2022-11-03T01:13:34.250Z,27.1
2022-11-03T01:14:36.165Z,27.2
2022-11-03T01:15:38.639Z,27.3
2022-11-03T01:16:41.266Z,27.2
2022-11-03T01:17:43.816Z,27.3
2022-11-03T01:18:45.732Z,27.1
2022-11-03T01:19:47.927Z,27.1
2022-11-03T01:20:50.406Z,27
2022-11-03T01:21:52.653Z,27.3
2022-11-03T01:22:55.133Z,27.4
2022-11-03T01:23:57.600Z,27.3
2022-11-03T01:24:59.792Z,27.4
2022-11-03T01:26:01.995Z,27.1
2022-11-03T01:27:04.485Z,27.3
2022-11-03T01:28:06.957Z,27.2
2022-11-03T01:29:09.191Z,27.1
2022-11-03T01:30:10.842Z,27.2
2022-11-03T01:31:13.051Z,27.2
2022-11-03T01:32:15.250Z,27.1
2022-11-03T01:33:17.785Z,27.2
2022-11-03T01:34:19.991Z,27.2
2022-11-03T01:35:22.213Z,27.1
2022-11-03T01:36:24.418Z,27.1
2022-11-03T01:37:26.906Z,27.4
2022-11-03T01:38:29.378Z,27.2
2022-11-03T01:39:31.845Z,27.1
2022-11-03T01:40:34.045Z,27.5
2022-11-03T01:41:35.962Z,27.3
2022-11-03T01:42:37.898Z,27.4
2022-11-03T01:43:40.363Z,27.3
2022-11-03T01:44:42.576Z,27.4
2022-11-03T01:45:44.490Z,27.1
2022-11-03T01:46:46.687Z,27.1
2022-11-03T01:47:48.940Z,27
2022-11-03T01:48:51.816Z,27.2
2022-11-03T01:49:54.286Z,27.5
2022-11-03T01:50:56.768Z,27.2
2022-11-03T01:51:58.689Z,27.2
2022-11-03T01:53:00.620Z,27.2
2022-11-03T01:54:02.805Z,27.2
2022-11-03T01:55:05.007Z,27
2022-11-03T01:56:07.474Z,27.4
2022-11-03T01:57:09.659Z,27.4
2022-11-03T01:58:12.149Z,27.3
2022-11-03T01:59:14.551Z,27.4
2022-11-03T02:00:16.747Z,27.2
2022-11-03T02:01:18.741Z,27.1
2022-11-03T02:02:22.008Z,27.4
2022-11-03T02:03:24.785Z,27.4
2022-11-03T02:04:27.316Z,27.4
2022-11-03T02:05:29.798Z,27.2
2022-11-03T02:06:31.992Z,27.5
2022-11-03T02:07:34.465Z,27.4
2022-11-03T02:08:36.663Z,27.3
2022-11-03T02:09:38.864Z,27.3
2022-11-03T02:10:41.334Z,27.4
2022-11-03T02:11:43.531Z,27.4
2022-11-03T02:12:45.732Z,27.5
2022-11-03T02:13:47.957Z,27.4
2022-11-03T02:14:50.424Z,27.3
2022-11-03T02:15:52.617Z,27.4
2022-11-03T02:16:54.519Z,27.3
2022-11-03T02:17:56.427Z,27.2
2022-11-03T02:18:58.352Z,27.7
2022-11-03T02:20:00.893Z,27.4
2022-11-03T02:21:02.812Z,27.5
2022-11-03T02:22:05.002Z,27.5
2022-11-03T02:23:07.526Z,27.3
2022-11-03T02:24:11.689Z,27.4
2022-11-03T02:25:13.887Z,27.4
2022-11-03T02:26:15.809Z,27.3
2022-11-03T02:27:18.006Z,27.5
2022-11-03T02:28:19.932Z,27.3
2022-11-03T02:29:21.874Z,27.5
2022-11-03T02:30:23.769Z,27.4
2022-11-03T02:31:25.974Z,27.3
2022-11-03T02:32:27.887Z,27.4
2022-11-03T02:33:30.109Z,27.4
2022-11-03T02:34:32.310Z,27.4
2022-11-03T02:35:34.855Z,27.3
2022-11-03T02:36:37.060Z,27.4
2022-11-03T02:37:38.967Z,27.5
2022-11-03T02:38:40.863Z,27.4
2022-11-03T02:39:43.351Z,27.3
2022-11-03T02:40:45.240Z,27.4
2022-11-03T02:41:47.457Z,27.4
2022-11-03T02:42:49.940Z,27.4
2022-11-03T02:43:52.428Z,27.3
2022-11-03T02:44:54.096Z,27.1
2022-11-03T02:45:56.295Z,27.3
2022-11-03T02:46:58.763Z,27.3
2022-11-03T02:48:00.980Z,27.5
2022-11-03T02:49:03.447Z,27.7
2022-11-03T02:50:05.630Z,27.3
2022-11-03T02:51:08.219Z,27.4
2022-11-03T02:52:10.716Z,27.6
2022-11-03T02:53:12.909Z,27.4
2022-11-03T02:54:15.378Z,27.5
2022-11-03T02:55:17.296Z,27.2
2022-11-03T02:56:19.492Z,27.4
2022-11-03T02:57:21.410Z,27.5
2022-11-03T02:58:23.617Z,27.4
2022-11-03T02:59:25.540Z,27.4
2022-11-03T03:00:28.029Z,27.4
2022-11-03T03:01:30.092Z,27.6
2022-11-03T03:02:33.625Z,27.5
2022-11-03T03:03:36.218Z,27.3
2022-11-03T03:04:38.419Z,27.2
2022-11-03T03:05:40.901Z,27.6
2022-11-03T03:06:43.435Z,27.5
2022-11-03T03:07:45.644Z,27.3
2022-11-03T03:08:48.114Z,27.5
2022-11-03T03:09:50.595Z,27.4
2022-11-03T03:10:52.514Z,27.7
2022-11-03T03:11:54.982Z,27.5
2022-11-03T03:12:57.167Z,27.4
2022-11-03T03:13:59.093Z,27.5
2022-11-03T03:15:01.293Z,27.8
2022-11-03T03:16:03.231Z,27.9
2022-11-03T03:17:05.126Z,27.4
2022-11-03T03:18:07.311Z,28.1
2022-11-03T03:19:09.776Z,27.4
2022-11-03T03:20:12.249Z,27.1
2022-11-03T03:21:14.418Z,27.6
2022-11-03T03:22:16.979Z,27.2
2022-11-03T03:23:19.371Z,27
2022-11-03T03:24:21.566Z,27.4
2022-11-03T03:25:23.760Z,27.3
2022-11-03T03:26:25.970Z,27.4
2022-11-03T03:27:27.872Z,27.2
2022-11-03T03:28:30.078Z,27.4
2022-11-03T03:29:32.540Z,27.5
2022-11-03T03:30:34.448Z,27.2
2022-11-03T03:31:36.642Z,27.3
2022-11-03T03:32:39.102Z,27.4
2022-11-03T03:33:43.422Z,27.5
2022-11-03T03:34:46.577Z,27.6
2022-11-03T03:35:49.051Z,27.6
2022-11-03T03:36:51.516Z,27.3
2022-11-03T03:37:54.055Z,27.5
2022-11-03T03:38:55.958Z,27.5
2022-11-03T03:39:58.426Z,27.6
2022-11-03T03:41:00.918Z,27.4
2022-11-03T03:42:07.265Z,27.2
2022-11-03T03:43:09.453Z,27.6
2022-11-03T03:44:11.928Z,27.4
2022-11-03T03:45:14.121Z,27.5
2022-11-03T03:46:16.314Z,27.1
2022-11-03T03:47:18.531Z,27.1
2022-11-03T03:48:20.720Z,27.5
2022-11-03T03:49:22.913Z,27.4
2022-11-03T03:50:24.536Z,27.2
2022-11-03T03:51:26.704Z,27.8
2022-11-03T03:52:28.335Z,27.8
2022-11-03T03:53:30.890Z,27.5
2022-11-03T03:54:33.361Z,27.4
2022-11-03T03:55:35.870Z,27.4
2022-11-03T03:56:37.785Z,27.6
2022-11-03T03:57:40.261Z,27.3
2022-11-03T03:58:42.441Z,27.9
2022-11-03T03:59:44.676Z,27.2
2022-11-03T04:00:46.979Z,28
2022-11-03T04:01:49.661Z,27.2
2022-11-03T04:02:52.875Z,27.9
2022-11-03T04:03:55.358Z,27
2022-11-03T04:04:57.280Z,27.1
2022-11-03T04:05:59.754Z,27.2
2022-11-03T04:07:01.976Z,27.8
2022-11-03T04:08:04.431Z,27.4
2022-11-03T04:09:09.056Z,27.6
2022-11-03T04:10:11.528Z,27.4
2022-11-03T04:11:13.448Z,27.3
2022-11-03T04:12:15.639Z,27.2
2022-11-03T04:13:17.298Z,27.3
2022-11-03T04:14:19.209Z,27.4
2022-11-03T04:15:21.680Z,27.2
2022-11-03T04:16:24.151Z,27.2
2022-11-03T04:17:26.361Z,27.3
2022-11-03T04:18:28.560Z,27.4
2022-11-03T04:19:31.030Z,27.3
2022-11-03T04:20:33.503Z,27.3
2022-11-03T04:21:35.707Z,27.2
2022-11-03T04:22:37.612Z,27.1
2022-11-03T04:23:39.535Z,27.3
2022-11-03T04:24:42.100Z,27.1
2022-11-03T04:25:44.026Z,27
2022-11-03T04:26:46.516Z,27.2
2022-11-03T04:27:48.441Z,27
2022-11-03T04:28:50.610Z,27
2022-11-03T04:29:53.078Z,27.1
2022-11-03T04:30:56.169Z,27.1
2022-11-03T04:31:59.992Z,27
2022-11-03T04:33:02.471Z,27.1
2022-11-03T04:34:04.699Z,27.1
2022-11-03T04:35:07.167Z,27.1
2022-11-03T04:36:09.638Z,27.1
2022-11-03T04:37:11.882Z,27.1
2022-11-03T04:38:14.365Z,26.9
2022-11-03T04:39:16.995Z,26.8
2022-11-03T04:40:20.070Z,27.1
2022-11-03T04:41:23.013Z,26.9
2022-11-03T04:42:25.628Z,26.9
2022-11-03T04:43:27.952Z,26.9
2022-11-03T04:44:30.636Z,26.8
2022-11-03T04:45:33.180Z,26.9
2022-11-03T04:46:35.703Z,26.9
2022-11-03T04:47:38.193Z,26.8
2022-11-03T04:48:40.697Z,26.9
2022-11-03T04:49:42.934Z,26.9
2022-11-03T04:50:46.876Z,26.9
2022-11-03T04:51:49.523Z,27
2022-11-03T04:52:52.039Z,26.9
2022-11-03T04:53:54.249Z,27
2022-11-03T04:54:56.467Z,26.9
2022-11-03T04:56:02.815Z,26.9
2022-11-03T04:57:04.073Z,26.9
2022-11-03T04:58:06.269Z,26.9
2022-11-03T04:59:08.460Z,26.9
2022-11-03T05:00:10.927Z,27
2022-11-03T05:01:13.294Z,26.9
2022-11-03T05:02:20.455Z,26.7
2022-11-03T05:03:22.076Z,26.9
2022-11-03T05:04:23.968Z,27
2022-11-03T05:05:26.227Z,26.8
2022-11-03T05:06:28.705Z,26.8
2022-11-03T05:07:30.982Z,27
2022-11-03T05:08:33.172Z,26.8
2022-11-03T05:09:38.947Z,26.9
2022-11-03T05:10:40.343Z,26.7
2022-11-03T05:11:42.603Z,26.7
2022-11-03T05:12:44.774Z,26.8
2022-11-03T05:13:46.969Z,26.8
2022-11-03T05:14:50.958Z,26.9
2022-11-03T05:15:54.132Z,26.8
2022-11-03T05:16:56.598Z,26.8
2022-11-03T05:17:59.076Z,26.9
2022-11-03T05:19:01.002Z,26.8
2022-11-03T05:20:03.218Z,26.9
2022-11-03T05:21:05.453Z,26.7
2022-11-03T05:22:07.944Z,26.9
2022-11-03T05:23:10.539Z,26.7
2022-11-03T05:24:12.786Z,26.8
2022-11-03T05:25:16.359Z,26.6
2022-11-03T05:26:18.832Z,26.7
2022-11-03T05:27:21.388Z,26.9
2022-11-03T05:28:23.284Z,26.8
2022-11-03T05:29:25.509Z,26.7
2022-11-03T05:30:27.165Z,26.8
2022-11-03T05:31:29.079Z,26.7
2022-11-03T05:32:31.292Z,26.9
2022-11-03T05:33:33.466Z,26.7
2022-11-03T05:34:35.364Z,26.7
2022-11-03T05:35:37.845Z,26.6
2022-11-03T05:36:40.082Z,26.7
2022-11-03T05:37:42.287Z,26.6
2022-11-03T05:38:44.782Z,26.8
2022-11-03T05:39:46.975Z,26.8
2022-11-03T05:40:49.455Z,26.7
2022-11-03T05:41:51.918Z,26.7
2022-11-03T05:42:54.471Z,26.7
2022-11-03T05:43:56.944Z,26.7
2022-11-03T05:44:59.411Z,26.8
2022-11-03T05:46:02.009Z,26.6
2022-11-03T05:47:05.969Z,26.7
2022-11-03T05:48:09.951Z,26.7
2022-11-03T05:49:12.486Z,26.6
2022-11-03T05:50:14.955Z,26.6
2022-11-03T05:51:17.449Z,26.6
2022-11-03T05:52:19.640Z,26.8
2022-11-03T05:53:22.101Z,26.6
2022-11-03T05:54:24.580Z,26.5
2022-11-03T05:55:27.067Z,26.7
2022-11-03T05:56:29.299Z,26.7
2022-11-03T05:57:31.773Z,26.7
2022-11-03T05:58:34.321Z,26.8
2022-11-03T05:59:36.797Z,26.7
2022-11-03T06:00:41.088Z,26.5
2022-11-03T06:01:44.386Z,26.6
2022-11-03T06:02:47.607Z,26.7
2022-11-03T06:03:50.507Z,26.7
2022-11-03T06:04:52.982Z,26.7
2022-11-03T06:05:55.450Z,26.7
2022-11-03T06:06:57.662Z,26.6
2022-11-03T06:07:59.885Z,26.7
2022-11-03T06:09:02.359Z,26.5
2022-11-03T06:10:04.544Z,26.5
2022-11-03T06:11:06.741Z,26.5
2022-11-03T06:12:09.223Z,26.6
2022-11-03T06:13:11.160Z,26.5
2022-11-03T06:14:13.729Z,26.6
2022-11-03T06:15:19.698Z,26.5
2022-11-03T06:16:21.895Z,26.6
2022-11-03T06:17:24.393Z,26.6
2022-11-03T06:18:26.912Z,26.7
2022-11-03T06:19:28.872Z,26.7
2022-11-03T06:20:31.095Z,26.7
2022-11-03T06:21:33.603Z,26.5
2022-11-03T06:22:36.384Z,26.5
2022-11-03T06:23:38.342Z,26.5
2022-11-03T06:24:40.858Z,26.5
2022-11-03T06:25:43.355Z,26.5
2022-11-03T06:26:45.593Z,26.8
2022-11-03T06:27:48.061Z,26.5
2022-11-03T06:28:50.241Z,26.6
2022-11-03T06:29:52.802Z,26.6
2022-11-03T06:30:54.992Z,26.5
2022-11-03T06:31:57.261Z,26.6
2022-11-03T06:32:59.454Z,26.6
2022-11-03T06:34:01.673Z,26.7
2022-11-03T06:35:03.864Z,26.5
2022-11-03T06:36:05.773Z,26.6
2022-11-03T06:37:12.475Z,26.6
2022-11-03T06:38:13.244Z,26.6
2022-11-03T06:39:15.187Z,26.5
2022-11-03T06:40:17.384Z,26.6
2022-11-03T06:41:19.883Z,26.5
2022-11-03T06:42:21.818Z,26.5
2022-11-03T06:43:27.299Z,26.3
2022-11-03T06:44:29.678Z,26.3
2022-11-03T06:45:32.253Z,26.5
2022-11-03T06:46:34.724Z,26.5
2022-11-03T06:47:37.190Z,26.5
2022-11-03T06:48:39.396Z,26.6
2022-11-03T06:49:41.870Z,26.4
2022-11-03T06:50:44.911Z,26.6
2022-11-03T06:51:47.245Z,26.4
2022-11-03T06:53:51.246Z,26.5
2022-11-03T06:54:53.792Z,26.4
2022-11-03T06:55:56.264Z,26.4
2022-11-03T06:56:58.464Z,26.6
2022-11-03T06:58:00.939Z,26.5
2022-11-03T06:59:03.127Z,26.4
2022-11-03T07:00:28.399Z,26.5
2022-11-03T07:01:10.686Z,26.4
2022-11-03T07:02:13.859Z,26.5
2022-11-03T07:03:16.931Z,26.4
2022-11-03T07:04:18.565Z,26.4
2022-11-03T07:05:20.766Z,26.5
2022-11-03T07:06:22.934Z,26.5
2022-11-03T07:07:25.418Z,26.7
2022-11-03T07:08:27.604Z,26.6
2022-11-03T07:09:29.799Z,26.6
2022-11-03T07:10:32.297Z,26.6
2022-11-03T07:11:34.509Z,26.5
2022-11-03T07:12:36.711Z,26.5
2022-11-03T07:13:39.195Z,26.6
2022-11-03T07:14:41.127Z,26.4
2022-11-03T07:15:43.043Z,26.6
2022-11-03T07:16:45.516Z,26.5
2022-11-03T07:17:48.121Z,26.5
2022-11-03T07:18:50.293Z,26.6
2022-11-03T07:19:52.502Z,26.5
2022-11-03T07:20:54.695Z,26.5
2022-11-03T07:21:57.605Z,26.6
2022-11-03T07:22:59.778Z,26.5
2022-11-03T07:24:02.253Z,26.5
2022-11-03T07:25:04.451Z,26.6
2022-11-03T07:26:06.392Z,26.5
2022-11-03T07:27:08.573Z,26.6
2022-11-03T07:28:11.058Z,26.4
2022-11-03T07:29:13.541Z,26.4
2022-11-03T07:30:15.468Z,26.5
2022-11-03T07:31:17.665Z,26.5
2022-11-03T07:32:19.859Z,26.5
2022-11-03T07:33:22.425Z,26.5
2022-11-03T07:34:24.638Z,26.5
2022-11-03T07:35:26.895Z,26.6
2022-11-03T07:36:32.918Z,26.5
2022-11-03T07:37:35.389Z,26.5
2022-11-03T07:38:37.870Z,26.6
2022-11-03T07:39:40.064Z,26.6
2022-11-03T07:40:42.536Z,26.3
2022-11-03T07:41:45.033Z,26.6
2022-11-03T07:42:47.503Z,26.6
2022-11-03T07:43:49.680Z,26.4
2022-11-03T07:44:51.635Z,26.6
2022-11-03T07:45:54.111Z,26.5
2022-11-03T07:46:56.319Z,26.6
2022-11-03T07:48:01.799Z,26.4
2022-11-03T07:49:03.788Z,26.6
2022-11-03T07:50:06.343Z,26.4
2022-11-03T07:51:08.826Z,26.5
2022-11-03T07:52:11.316Z,26.4
2022-11-03T07:53:13.536Z,26.4
2022-11-03T07:54:15.733Z,26.4
2022-11-03T07:55:18.202Z,26.5
2022-11-03T07:56:20.490Z,26.4
2022-11-03T07:57:23.254Z,26.3
2022-11-03T07:58:25.731Z,26.4
2022-11-03T07:59:27.961Z,26.5
2022-11-03T08:00:30.172Z,26.3
2022-11-03T08:01:32.528Z,26.5
2022-11-03T08:02:35.253Z,26.5
2022-11-03T08:03:37.479Z,26.3
2022-11-03T08:04:39.962Z,26.3
2022-11-03T08:05:42.529Z,26.4
2022-11-03T08:06:45.007Z,26.4
2022-11-03T08:07:46.648Z,26.4
2022-11-03T08:08:48.850Z,26.4
2022-11-03T08:09:51.097Z,26.4
2022-11-03T08:10:53.298Z,26.3
2022-11-03T08:11:55.514Z,26.4
2022-11-03T08:12:57.744Z,26.3
2022-11-03T08:13:59.941Z,26.3
2022-11-03T08:15:02.422Z,26.5
2022-11-03T08:16:04.627Z,26.2
2022-11-03T08:17:06.825Z,26.3
2022-11-03T08:18:09.310Z,26.4
2022-11-03T08:19:11.790Z,26.3
2022-11-03T08:20:13.993Z,26.4
2022-11-03T08:21:16.545Z,26.5
2022-11-03T08:22:19.035Z,26.4
2022-11-03T08:23:25.977Z,26.3
2022-11-03T08:24:26.218Z,26.4
2022-11-03T08:25:28.286Z,26.4
2022-11-03T08:26:30.505Z,26.2
2022-11-03T08:27:32.989Z,26.4
2022-11-03T08:28:35.221Z,26.4
2022-11-03T08:29:37.699Z,26.4
2022-11-03T08:30:39.618Z,26.3
2022-11-03T08:31:41.281Z,26
2022-11-03T08:32:43.798Z,26.5
2022-11-03T08:33:46.271Z,26.3
2022-11-03T08:34:48.205Z,26.4
2022-11-03T08:35:49.949Z,26.4
2022-11-03T08:36:52.579Z,26.4
2022-11-03T08:37:54.787Z,26.4
2022-11-03T08:38:56.985Z,26.4
2022-11-03T08:39:58.897Z,26.3
2022-11-03T08:41:01.095Z,26.2
2022-11-03T08:42:03.344Z,26.4
2022-11-03T08:43:05.549Z,26.2
2022-11-03T08:44:07.498Z,26.4
2022-11-03T08:45:09.988Z,26.3
2022-11-03T08:46:17.502Z,26.4
2022-11-03T08:47:17.182Z,26.3
2022-11-03T08:48:19.563Z,26.5
2022-11-03T08:49:21.767Z,26.2
2022-11-03T08:50:24.319Z,26.5
2022-11-03T08:51:27.154Z,26.4
2022-11-03T08:52:29.767Z,26.4
2022-11-03T08:53:31.984Z,26.5
2022-11-03T08:54:34.456Z,26.2
2022-11-03T08:55:36.922Z,26.4
2022-11-03T08:56:38.878Z,26.3
2022-11-03T08:57:41.071Z,26.3
2022-11-03T08:58:43.285Z,26.4
2022-11-03T08:59:45.310Z,26.3
2022-11-03T09:00:47.506Z,26.4
2022-11-03T09:01:50.046Z,26.5
2022-11-03T09:02:52.325Z,26.3
2022-11-03T09:03:54.546Z,26.4
2022-11-03T09:04:57.219Z,26.2
2022-11-03T09:05:59.432Z,26.5
2022-11-03T09:07:01.613Z,26.3
2022-11-03T09:11:18.887Z,26.4
2022-11-03T09:12:21.083Z,26.3
2022-11-03T09:13:23.569Z,26.4
2022-11-03T09:14:25.763Z,26.5
2022-11-03T09:15:27.980Z,26.4
2022-11-03T09:16:30.481Z,26.4
2022-11-03T09:17:32.969Z,26.4
2022-11-03T09:18:35.183Z,26.5
2022-11-03T09:19:37.455Z,26.3
2022-11-03T09:20:39.655Z,26.5
2022-11-03T09:21:41.579Z,26.3
2022-11-03T09:22:43.790Z,26.3
2022-11-03T09:23:46.425Z,26.5
2022-11-03T09:24:48.628Z,26.4
2022-11-03T09:25:50.830Z,26.5
2022-11-03T09:26:55.137Z,26.5
2022-11-03T09:27:58.306Z,26.5
2022-11-03T09:29:00.781Z,26.5
2022-11-03T09:30:14.433Z,26.4
2022-11-03T09:31:07.704Z,26.3
2022-11-03T09:32:10.215Z,26.4
2022-11-03T09:33:12.433Z,26.4
2022-11-03T09:34:14.371Z,26.5
2022-11-03T09:35:16.613Z,26.5
2022-11-03T09:36:18.813Z,26.5
2022-11-03T09:37:20.996Z,26.5
2022-11-03T09:38:23.210Z,26.5
2022-11-03T09:39:25.781Z,26.4
2022-11-03T09:40:27.986Z,26.3
2022-11-03T09:41:52.229Z,26.3
2022-11-03T09:42:35.444Z,26.5
2022-11-03T09:43:37.652Z,26.3
2022-11-03T09:44:39.839Z,26.4
2022-11-03T09:45:42.044Z,26.3
2022-11-03T09:46:44.250Z,26.4
2022-11-03T09:47:46.144Z,26.5
2022-11-03T09:48:48.359Z,26.4
2022-11-03T09:49:50.574Z,26.3
2022-11-03T09:50:53.047Z,26.3
2022-11-03T09:51:55.520Z,26.4
2022-11-03T09:52:57.742Z,26.3
2022-11-03T09:53:59.960Z,26.5
2022-11-03T09:55:02.520Z,26.3
2022-11-03T09:56:04.990Z,26.3
2022-11-03T09:57:07.224Z,26.3
2022-11-03T09:58:09.748Z,26.3
2022-11-03T09:59:12.247Z,26.3
2022-11-03T10:00:14.725Z,26.4
2022-11-03T10:01:17.036Z,26.5
2022-11-03T10:02:19.696Z,26.5
2022-11-03T10:03:22.225Z,26.4
2022-11-03T10:04:24.507Z,26.2
2022-11-03T10:05:27.107Z,26.4
2022-11-03T10:06:29.591Z,26.3
2022-11-03T10:07:32.084Z,26.2
2022-11-03T10:08:34.556Z,26.3
2022-11-03T10:09:36.473Z,26.4
2022-11-03T10:10:39.020Z,26.4
2022-11-03T10:11:40.940Z,26.5
2022-11-03T10:12:42.856Z,26.5
2022-11-03T10:13:45.066Z,26.5
2022-11-03T10:14:47.292Z,26.4
2022-11-03T10:15:49.214Z,26.4
2022-11-03T10:16:53.288Z,26.4
2022-11-03T10:17:55.890Z,26.5
2022-11-03T10:18:58.374Z,26.4
2022-11-03T10:20:00.563Z,26.3
2022-11-03T10:21:02.741Z,26.4
2022-11-03T10:22:05.212Z,26.2
2022-11-03T10:23:08.064Z,26.5
2022-11-03T10:24:11.259Z,26.4
2022-11-03T10:25:13.738Z,26.4
2022-11-03T10:26:16.302Z,26.3
2022-11-03T10:27:18.822Z,26.3
2022-11-03T10:28:21.295Z,26.4
2022-11-03T10:29:23.222Z,26.4
2022-11-03T10:30:25.283Z,26.3
2022-11-03T10:31:31.799Z,26.4
2022-11-03T10:32:33.728Z,26.4
2022-11-03T10:33:35.964Z,26.5
2022-11-03T10:34:38.166Z,26.4
2022-11-03T10:35:40.719Z,26.3
2022-11-03T10:36:45.565Z,26.3
2022-11-03T10:37:47.612Z,26.5
2022-11-03T10:38:49.291Z,26.4
2022-11-03T10:39:51.769Z,26.5
2022-11-03T10:40:53.976Z,26.4
2022-11-03T10:41:56.553Z,26.3
2022-11-03T10:42:58.755Z,26.4
2022-11-03T10:44:00.662Z,26.4
2022-11-03T10:45:02.316Z,26.4
2022-11-03T10:46:06.197Z,26.3
2022-11-03T10:47:09.522Z,26.4
2022-11-03T10:48:12.009Z,26.5
2022-11-03T10:49:14.526Z,26.5
2022-11-03T10:50:16.889Z,26.4
2022-11-03T10:51:18.812Z,26.3
2022-11-03T10:52:20.869Z,26.4
2022-11-03T10:53:23.775Z,26.4
2022-11-03T10:54:29.501Z,26.4
2022-11-03T10:55:32.048Z,26.4
2022-11-03T10:56:34.890Z,26.4
2022-11-03T10:57:37.462Z,26.2
2022-11-03T10:58:39.673Z,26.4
2022-11-03T10:59:41.871Z,26.4
2022-11-03T11:00:44.135Z,26.4
2022-11-03T11:01:46.835Z,26.4
2022-11-03T11:02:50.328Z,26.5
2022-11-03T11:03:52.303Z,26.3
2022-11-03T11:04:54.895Z,26.4
2022-11-03T11:05:57.124Z,26.4
2022-11-03T11:06:59.610Z,26.4
2022-11-03T11:08:01.870Z,26.3
2022-11-03T11:09:03.948Z,26.4
2022-11-03T11:10:05.861Z,26.4
2022-11-03T11:11:08.066Z,26.4
2022-11-03T11:12:09.967Z,26.4
2022-11-03T11:13:12.538Z,26.3
2022-11-03T11:14:14.750Z,26.3
2022-11-03T11:15:16.963Z,26.4
2022-11-03T11:16:19.462Z,26.5
2022-11-03T11:17:21.645Z,26.4
2022-11-03T11:18:23.860Z,26.4
2022-11-03T11:19:26.057Z,26.5
2022-11-03T11:20:28.550Z,26.3
2022-11-03T11:21:31.984Z,26.5
2022-11-03T11:22:35.467Z,26.4
2022-11-03T11:23:37.990Z,26.4
2022-11-03T11:24:40.476Z,26.2
2022-11-03T11:25:42.975Z,26.5
2022-11-03T11:26:45.188Z,26.3
2022-11-03T11:27:47.410Z,26.4
2022-11-03T11:28:56.477Z,26.3
2022-11-03T11:29:58.732Z,26.3
2022-11-03T11:31:00.943Z,26.4
2022-11-03T11:32:03.415Z,26.4
2022-11-03T11:33:05.554Z,26.5
2022-11-03T11:34:09.792Z,26.5
2022-11-03T11:35:12.017Z,26.3
2022-11-03T11:36:14.237Z,26.4
2022-11-03T11:37:16.139Z,26.4
2022-11-03T11:38:18.638Z,26.5
2022-11-03T11:39:20.564Z,26.5
2022-11-03T11:40:22.766Z,26.4
2022-11-03T11:41:24.681Z,26.3
2022-11-03T11:43:28.367Z,26.5
2022-11-03T11:44:30.933Z,26.5
2022-11-03T11:45:33.113Z,26.4
2022-11-03T11:46:35.287Z,26.5
2022-11-03T11:47:37.215Z,26.4
2022-11-03T11:48:39.157Z,26.3
2022-11-03T11:49:41.345Z,26.5
2022-11-03T11:50:43.815Z,26.4
2022-11-03T11:51:46.017Z,26.4
2022-11-03T11:52:48.206Z,26.5
2022-11-03T11:53:54.555Z,26.3
2022-11-03T11:54:55.671Z,26.5
2022-11-03T11:55:58.146Z,26.5
2022-11-03T11:57:00.620Z,26.4
2022-11-03T11:58:02.797Z,26.3
2022-11-03T11:59:04.989Z,26.2
2022-11-03T12:00:07.549Z,26.1
2022-11-03T12:01:09.752Z,26.3
2022-11-03T12:02:12.115Z,26.4
2022-11-03T12:03:14.100Z,26.5
2022-11-03T12:04:19.932Z,26.5
2022-11-03T12:05:21.853Z,26.4
2022-11-03T12:06:24.057Z,26.5
2022-11-03T12:07:26.281Z,26.4
2022-11-03T12:08:28.496Z,26.5
2022-11-03T12:09:30.690Z,26.2
2022-11-03T12:10:32.883Z,26.5
2022-11-03T12:11:34.853Z,26.5
2022-11-03T12:12:37.133Z,26.3
2022-11-03T12:13:39.370Z,26.4
2022-11-03T12:14:41.582Z,26.3
2022-11-03T12:15:44.154Z,26.3
2022-11-03T12:16:46.632Z,26.4
2022-11-03T12:17:48.857Z,26.5
2022-11-03T12:18:51.071Z,26.3
2022-11-03T12:19:53.285Z,26.4
2022-11-03T12:20:55.218Z,26.3
2022-11-03T12:21:57.931Z,26.5
2022-11-03T12:23:00.469Z,26.5
2022-11-03T12:24:02.727Z,26.3
2022-11-03T12:25:04.924Z,26.4
2022-11-03T12:26:07.165Z,26.4
2022-11-03T12:27:09.301Z,26.3
2022-11-03T12:28:11.219Z,26.3
2022-11-03T12:29:13.692Z,26.4
2022-11-03T12:30:15.632Z,26.3
2022-11-03T12:31:18.215Z,26.5
2022-11-03T12:32:26.081Z,26.3
2022-11-03T12:33:25.207Z,26.3
2022-11-03T12:34:27.447Z,26.3
2022-11-03T12:35:29.955Z,26.3
2022-11-03T12:36:32.223Z,26.3
2022-11-03T12:37:34.775Z,26.4
2022-11-03T12:38:37.335Z,26.4
2022-11-03T12:39:40.159Z,26.3
2022-11-03T12:40:42.738Z,26.3
2022-11-03T12:41:45.282Z,26.4
2022-11-03T12:42:47.509Z,26.3
2022-11-03T12:43:49.516Z,26.4
2022-11-03T12:44:52.342Z,26.4
2022-11-03T12:45:54.829Z,26.5
2022-11-03T12:46:57.406Z,26.4
2022-11-03T12:47:59.618Z,26.3
2022-11-03T12:49:01.554Z,26.4
2022-11-03T12:50:03.813Z,26.3
2022-11-03T12:51:06.314Z,26.3
2022-11-03T12:52:08.901Z,26.3
2022-11-03T12:53:11.147Z,26.3
2022-11-03T12:54:13.148Z,26.2
2022-11-03T12:55:15.415Z,26.3
2022-11-03T12:56:17.811Z,26.3
2022-11-03T12:57:20.011Z,26.2
2022-11-03T12:58:22.238Z,26.4
2022-11-03T12:59:24.445Z,26.3
2022-11-03T13:00:26.663Z,26.3
2022-11-03T13:01:28.744Z,26.2
2022-11-03T13:02:32.294Z,26.3
2022-11-03T13:03:35.522Z,26.3
2022-11-03T13:04:37.941Z,26.5
2022-11-03T13:05:40.201Z,26.2
2022-11-03T13:06:42.702Z,26.4
2022-11-03T13:07:45.194Z,26.1
2022-11-03T13:08:47.869Z,26.2
2022-11-03T13:09:51.911Z,26.3
2022-11-03T13:10:54.092Z,26.3
2022-11-03T13:11:56.310Z,26.4
2022-11-03T13:12:58.488Z,26.2
2022-11-03T13:14:00.695Z,26.4
2022-11-03T13:15:03.194Z,26.2
2022-11-03T13:16:05.440Z,26.2
2022-11-03T13:17:08.049Z,26.2
2022-11-03T13:18:13.637Z,26.2
2022-11-03T13:19:15.615Z,26.2
2022-11-03T13:20:18.097Z,26.3
2022-11-03T13:21:20.300Z,26.2
2022-11-03T13:22:22.226Z,26
2022-11-03T13:23:24.723Z,26.4
2022-11-03T13:24:26.924Z,26.3
2022-11-03T13:25:29.258Z,26.4
2022-11-03T13:26:32.229Z,26.3
2022-11-03T13:27:33.897Z,26.3
2022-11-03T13:28:36.374Z,26.4
2022-11-03T13:29:38.839Z,26.2
2022-11-03T13:30:40.757Z,26.4
2022-11-03T13:31:43.238Z,26.4
2022-11-03T13:32:45.714Z,26.4
2022-11-03T13:33:48.274Z,26.2
2022-11-03T13:34:50.482Z,26.3
2022-11-03T13:35:52.475Z,26.2
2022-11-03T13:36:55.285Z,26.2
2022-11-03T13:37:57.762Z,26.4
2022-11-03T13:39:00.252Z,26.3
2022-11-03T13:40:01.901Z,26.3
2022-11-03T13:41:08.601Z,26.3
2022-11-03T13:42:09.072Z,26.3
2022-11-03T13:43:11.912Z,26.2
2022-11-03T13:44:14.503Z,26.4
2022-11-03T13:45:17.004Z,26.2
2022-11-03T13:46:19.202Z,26.5
2022-11-03T13:47:29.795Z,26.4
2022-11-03T13:50:36.719Z,26.2
2022-11-03T13:51:39.532Z,26.3
2022-11-03T13:52:42.027Z,26.3
2022-11-03T13:55:57.341Z,26.4
2022-11-03T13:59:26.267Z,26.1
2022-11-03T14:00:15.513Z,26.3
2022-11-03T14:01:18.057Z,26.5
2022-11-03T14:05:37.344Z,26.3
2022-11-03T14:06:39.815Z,26.3
2022-11-03T14:07:42.367Z,26.4
2022-11-03T14:08:44.267Z,26.4